sensor_id;sensor_type;location;lat;lon;timestamp;pressure;altitude;pressure_sealevel;temperature;humidity
51876;BME280;34054;52.100;5.116;2022-11-14T00:00:28;101426.28;;;8.16;74.66
51876;BME280;34054;52.100;5.116;2022-11-14T00:01:06;101423.22;;;7.94;75.04
51876;BME280;34054;52.100;5.116;2022-11-14T00:01:39;101425.25;;;7.98;75.21
51876;BME280;34054;52.100;5.116;2022-11-14T00:02:11;101424.63;;;7.96;75.23
51876;BME280;34054;52.100;5.116;2022-11-14T00:02:42;101422.66;;;7.85;75.46
51876;BME280;34054;52.100;5.116;2022-11-14T00:03:14;101424.41;;;7.79;75.65
51876;BME280;34054;52.100;5.116;2022-11-14T00:03:48;101422.38;;;7.75;75.79
51876;BME280;34054;52.100;5.116;2022-11-14T00:04:21;101430.41;;;7.81;75.88
51876;BME280;34054;52.100;5.116;2022-11-14T00:04:52;101429.53;;;7.88;75.85
51876;BME280;34054;52.100;5.116;2022-11-14T00:05:25;101418.72;;;7.88;76.03
51876;BME280;34054;52.100;5.116;2022-11-14T00:05:57;101422.00;;;7.90;76.03
51876;BME280;34054;52.100;5.116;2022-11-14T00:06:28;101417.13;;;7.80;76.01
51876;BME280;34054;52.100;5.116;2022-11-14T00:07:01;101422.75;;;7.78;76.02
51876;BME280;34054;52.100;5.116;2022-11-14T00:07:33;101423.38;;;7.80;76.07
51876;BME280;34054;52.100;5.116;2022-11-14T00:08:05;101427.88;;;7.86;76.09
51876;BME280;34054;52.100;5.116;2022-11-14T00:08:37;101423.44;;;7.92;76.14
51876;BME280;34054;52.100;5.116;2022-11-14T00:09:10;101429.59;;;7.99;75.81
51876;BME280;34054;52.100;5.116;2022-11-14T00:09:41;101425.69;;;7.95;75.93
51876;BME280;34054;52.100;5.116;2022-11-14T00:10:14;101410.22;;;7.84;75.71
51876;BME280;34054;52.100;5.116;2022-11-14T00:10:48;101418.72;;;7.88;75.80
51876;BME280;34054;52.100;5.116;2022-11-14T00:11:20;101426.97;;;7.93;75.70
51876;BME280;34054;52.100;5.116;2022-11-14T00:11:52;101417.25;;;7.85;75.55
51876;BME280;34054;52.100;5.116;2022-11-14T00:12:25;101415.84;;;7.82;75.68
51876;BME280;34054;52.100;5.116;2022-11-14T00:12:57;101413.44;;;7.93;75.62
51876;BME280;34054;52.100;5.116;2022-11-14T00:13:28;101414.97;;;7.89;75.55
51876;BME280;34054;52.100;5.116;2022-11-14T00:14:01;101419.97;;;7.85;75.63
51876;BME280;34054;52.100;5.116;2022-11-14T00:14:32;101411.31;;;7.76;75.84
51876;BME280;34054;52.100;5.116;2022-11-14T00:15:05;101418.09;;;7.85;75.87
51876;BME280;34054;52.100;5.116;2022-11-14T00:15:40;101409.00;;;7.80;75.91
51876;BME280;34054;52.100;5.116;2022-11-14T00:16:11;101403.81;;;7.78;75.99
51876;BME280;34054;52.100;5.116;2022-11-14T00:16:44;101400.00;;;7.67;75.99
51876;BME280;34054;52.100;5.116;2022-11-14T00:17:16;101395.03;;;7.64;76.16
51876;BME280;34054;52.100;5.116;2022-11-14T00:17:48;101392.38;;;7.58;76.50
51876;BME280;34054;52.100;5.116;2022-11-14T00:18:21;101407.25;;;7.67;76.47
51876;BME280;34054;52.100;5.116;2022-11-14T00:18:53;101415.88;;;7.57;76.70
51876;BME280;34054;52.100;5.116;2022-11-14T00:19:24;101404.22;;;7.57;76.75
51876;BME280;34054;52.100;5.116;2022-11-14T00:19:57;101413.38;;;7.55;76.62
51876;BME280;34054;52.100;5.116;2022-11-14T00:20:28;101414.47;;;7.54;76.99
51876;BME280;34054;52.100;5.116;2022-11-14T00:21:00;101418.59;;;7.57;77.00
51876;BME280;34054;52.100;5.116;2022-11-14T00:21:33;101414.22;;;7.56;77.06
51876;BME280;34054;52.100;5.116;2022-11-14T00:22:04;101391.47;;;7.45;77.15
51876;BME280;34054;52.100;5.116;2022-11-14T00:22:36;101422.34;;;7.56;77.20
51876;BME280;34054;52.100;5.116;2022-11-14T00:23:07;101415.28;;;7.55;77.11
51876;BME280;34054;52.100;5.116;2022-11-14T00:23:40;101416.94;;;7.56;77.05
51876;BME280;34054;52.100;5.116;2022-11-14T00:24:11;101412.94;;;7.59;77.12
51876;BME280;34054;52.100;5.116;2022-11-14T00:24:43;101408.09;;;7.67;76.95
51876;BME280;34054;52.100;5.116;2022-11-14T00:25:16;101412.91;;;7.65;76.94
51876;BME280;34054;52.100;5.116;2022-11-14T00:25:48;101403.94;;;7.65;76.96
51876;BME280;34054;52.100;5.116;2022-11-14T00:26:19;101408.09;;;7.67;76.87
51876;BME280;34054;52.100;5.116;2022-11-14T00:26:52;101413.03;;;7.70;76.89
51876;BME280;34054;52.100;5.116;2022-11-14T00:27:23;101410.34;;;7.70;76.76
51876;BME280;34054;52.100;5.116;2022-11-14T00:27:55;101410.03;;;7.79;76.83
51876;BME280;34054;52.100;5.116;2022-11-14T00:28:28;101409.00;;;7.80;76.50
51876;BME280;34054;52.100;5.116;2022-11-14T00:29:00;101411.19;;;7.71;76.52
51876;BME280;34054;52.100;5.116;2022-11-14T00:29:32;101401.63;;;7.68;76.54
51876;BME280;34054;52.100;5.116;2022-11-14T00:30:04;101412.81;;;7.72;76.51
51876;BME280;34054;52.100;5.116;2022-11-14T00:30:37;101402.47;;;7.69;76.42
51876;BME280;34054;52.100;5.116;2022-11-14T00:31:10;101409.72;;;7.68;76.56
51876;BME280;34054;52.100;5.116;2022-11-14T00:31:42;101408.25;;;7.73;76.35
51876;BME280;34054;52.100;5.116;2022-11-14T00:32:15;101377.97;;;7.64;76.37
51876;BME280;34054;52.100;5.116;2022-11-14T00:32:46;101402.13;;;7.59;76.36
51876;BME280;34054;52.100;5.116;2022-11-14T00:33:18;101391.75;;;7.55;76.77
51876;BME280;34054;52.100;5.116;2022-11-14T00:33:51;101403.78;;;7.60;76.72
51876;BME280;34054;52.100;5.116;2022-11-14T00:34:23;101408.16;;;7.61;76.53
51876;BME280;34054;52.100;5.116;2022-11-14T00:34:54;101398.63;;;7.58;76.70
51876;BME280;34054;52.100;5.116;2022-11-14T00:35:26;101399.38;;;7.65;76.67
51876;BME280;34054;52.100;5.116;2022-11-14T00:35:58;101391.88;;;7.67;76.75
51876;BME280;34054;52.100;5.116;2022-11-14T00:36:30;101395.78;;;7.72;76.67
51876;BME280;34054;52.100;5.116;2022-11-14T00:37:03;101392.41;;;7.76;76.54
51876;BME280;34054;52.100;5.116;2022-11-14T00:37:34;101393.44;;;7.75;76.44
51876;BME280;34054;52.100;5.116;2022-11-14T00:38:06;101392.94;;;7.66;76.18
51876;BME280;34054;52.100;5.116;2022-11-14T00:38:39;101395.16;;;7.69;76.39
51876;BME280;34054;52.100;5.116;2022-11-14T00:39:12;101398.34;;;7.66;76.63
51876;BME280;34054;52.100;5.116;2022-11-14T00:39:44;101388.25;;;7.55;76.97
51876;BME280;34054;52.100;5.116;2022-11-14T00:40:17;101396.00;;;7.70;76.60
51876;BME280;34054;52.100;5.116;2022-11-14T00:40:49;101382.59;;;7.57;76.39
51876;BME280;34054;52.100;5.116;2022-11-14T00:41:20;101388.34;;;7.67;76.38
51876;BME280;34054;52.100;5.116;2022-11-14T00:41:53;101400.75;;;7.75;76.32
51876;BME280;34054;52.100;5.116;2022-11-14T00:42:25;101403.22;;;7.76;76.36
51876;BME280;34054;52.100;5.116;2022-11-14T00:42:56;101401.13;;;7.78;76.25
51876;BME280;34054;52.100;5.116;2022-11-14T00:43:29;101398.19;;;7.80;76.18
51876;BME280;34054;52.100;5.116;2022-11-14T00:44:01;101395.78;;;7.72;76.24
51876;BME280;34054;52.100;5.116;2022-11-14T00:44:32;101397.00;;;7.76;76.26
51876;BME280;34054;52.100;5.116;2022-11-14T00:45:06;101399.47;;;7.77;76.15
51876;BME280;34054;52.100;5.116;2022-11-14T00:45:37;101400.75;;;7.75;76.07
51876;BME280;34054;52.100;5.116;2022-11-14T00:46:11;101400.13;;;7.73;76.09
51876;BME280;34054;52.100;5.116;2022-11-14T00:46:43;101385.41;;;7.68;75.94
51876;BME280;34054;52.100;5.116;2022-11-14T00:47:15;101402.69;;;7.67;76.13
51876;BME280;34054;52.100;5.116;2022-11-14T00:47:46;101405.00;;;7.64;76.07
51876;BME280;34054;52.100;5.116;2022-11-14T00:48:19;101401.91;;;7.60;76.01
51876;BME280;34054;52.100;5.116;2022-11-14T00:48:51;101410.44;;;7.38;76.42
51876;BME280;34054;52.100;5.116;2022-11-14T00:49:22;101409.59;;;7.38;76.64
51876;BME280;34054;52.100;5.116;2022-11-14T00:49:55;101402.34;;;7.38;76.90
51876;BME280;34054;52.100;5.116;2022-11-14T00:50:26;101401.50;;;7.38;77.12
51876;BME280;34054;52.100;5.116;2022-11-14T00:50:59;101386.56;;;7.35;77.15
51876;BME280;34054;52.100;5.116;2022-11-14T00:51:30;101407.47;;;7.47;77.10
51876;BME280;34054;52.100;5.116;2022-11-14T00:52:02;101402.28;;;7.45;77.18
51876;BME280;34054;52.100;5.116;2022-11-14T00:52:35;101403.38;;;7.37;76.92
51876;BME280;34054;52.100;5.116;2022-11-14T00:53:06;101398.59;;;7.39;77.23
51876;BME280;34054;52.100;5.116;2022-11-14T00:53:38;101398.34;;;7.41;77.25
51876;BME280;34054;52.100;5.116;2022-11-14T00:54:11;101403.00;;;7.34;77.28
51876;BME280;34054;52.100;5.116;2022-11-14T00:54:42;101371.50;;;7.21;77.34
51876;BME280;34054;52.100;5.116;2022-11-14T00:55:14;101395.56;;;7.29;77.60
51876;BME280;34054;52.100;5.116;2022-11-14T00:55:47;101394.94;;;7.27;77.65
51876;BME280;34054;52.100;5.116;2022-11-14T00:56:18;101395.41;;;7.24;77.71
51876;BME280;34054;52.100;5.116;2022-11-14T00:56:50;101390.84;;;7.18;77.71
51876;BME280;34054;52.100;5.116;2022-11-14T00:57:22;101399.34;;;7.21;77.90
51876;BME280;34054;52.100;5.116;2022-11-14T00:57:54;101393.13;;;7.21;77.92
51876;BME280;34054;52.100;5.116;2022-11-14T00:58:25;101390.19;;;7.22;78.07
51876;BME280;34054;52.100;5.116;2022-11-14T00:58:58;101395.44;;;7.17;77.98
51876;BME280;34054;52.100;5.116;2022-11-14T00:59:30;101393.41;;;7.13;78.07
51876;BME280;34054;52.100;5.116;2022-11-14T01:00:02;101375.66;;;6.98;78.06
51876;BME280;34054;52.100;5.116;2022-11-14T01:00:36;101364.84;;;6.98;78.17
51876;BME280;34054;52.100;5.116;2022-11-14T01:01:08;101389.19;;;7.17;78.37
51876;BME280;34054;52.100;5.116;2022-11-14T01:01:41;101387.50;;;7.22;78.16
51876;BME280;34054;52.100;5.116;2022-11-14T01:02:14;101389.16;;;7.23;78.04
51876;BME280;34054;52.100;5.116;2022-11-14T01:02:45;101391.31;;;7.15;78.11
51876;BME280;34054;52.100;5.116;2022-11-14T01:03:17;101387.34;;;7.17;78.31
51876;BME280;34054;52.100;5.116;2022-11-14T01:03:50;101391.25;;;6.96;78.78
51876;BME280;34054;52.100;5.116;2022-11-14T01:04:22;101376.63;;;6.79;78.96
51876;BME280;34054;52.100;5.116;2022-11-14T01:04:54;101384.03;;;6.90;79.25
51876;BME280;34054;52.100;5.116;2022-11-14T01:05:26;101382.63;;;7.06;79.04
51876;BME280;34054;52.100;5.116;2022-11-14T01:06:02;101387.50;;;6.97;79.08
51876;BME280;34054;52.100;5.116;2022-11-14T01:06:36;101386.47;;;6.98;79.22
51876;BME280;34054;52.100;5.116;2022-11-14T01:07:08;101386.00;;;7.01;79.07
51876;BME280;34054;52.100;5.116;2022-11-14T01:07:40;101391.50;;;7.13;78.81
51876;BME280;34054;52.100;5.116;2022-11-14T01:08:13;101382.75;;;7.18;78.81
51876;BME280;34054;52.100;5.116;2022-11-14T01:08:48;101382.56;;;7.19;78.59
51876;BME280;34054;52.100;5.116;2022-11-14T01:09:21;101387.13;;;7.19;78.20
51876;BME280;34054;52.100;5.116;2022-11-14T01:09:52;101382.22;;;7.09;78.38
51876;BME280;34054;52.100;5.116;2022-11-14T01:10:25;101384.44;;;6.87;78.88
51876;BME280;34054;52.100;5.116;2022-11-14T01:10:56;101383.16;;;6.96;79.05
51876;BME280;34054;52.100;5.116;2022-11-14T01:11:29;101372.31;;;7.03;79.10
51876;BME280;34054;52.100;5.116;2022-11-14T01:12:00;101360.75;;;6.89;78.93
51876;BME280;34054;52.100;5.116;2022-11-14T01:12:33;101385.16;;;7.07;78.90
51876;BME280;34054;52.100;5.116;2022-11-14T01:13:05;101378.13;;;7.00;78.95
51876;BME280;34054;52.100;5.116;2022-11-14T01:13:37;101379.41;;;6.97;79.05
51876;BME280;34054;52.100;5.116;2022-11-14T01:14:10;101374.78;;;7.04;78.98
51876;BME280;34054;52.100;5.116;2022-11-14T01:14:41;101374.34;;;7.07;79.07
51876;BME280;34054;52.100;5.116;2022-11-14T01:15:13;101373.88;;;7.11;79.02
51876;BME280;34054;52.100;5.116;2022-11-14T01:15:48;101374.78;;;7.04;78.90
51876;BME280;34054;52.100;5.116;2022-11-14T01:16:19;101361.31;;;6.98;78.90
51876;BME280;34054;52.100;5.116;2022-11-14T01:16:52;101371.78;;;7.13;78.80
51876;BME280;34054;52.100;5.116;2022-11-14T01:17:25;101371.38;;;7.16;78.46
51876;BME280;34054;52.100;5.116;2022-11-14T01:17:58;101364.72;;;7.12;78.70
51876;BME280;34054;52.100;5.116;2022-11-14T01:18:30;101365.34;;;7.14;78.61
51876;BME280;34054;52.100;5.116;2022-11-14T01:19:03;101362.59;;;7.20;78.54
51876;BME280;34054;52.100;5.116;2022-11-14T01:19:35;101374.97;;;7.28;78.36
51876;BME280;34054;52.100;5.116;2022-11-14T01:20:07;101372.28;;;7.28;78.34
51876;BME280;34054;52.100;5.116;2022-11-14T01:20:40;101354.53;;;7.14;78.28
51876;BME280;34054;52.100;5.116;2022-11-14T01:21:13;101372.72;;;7.25;78.07
51876;BME280;34054;52.100;5.116;2022-11-14T01:21:44;101365.06;;;7.22;78.00
51876;BME280;34054;52.100;5.116;2022-11-14T01:22:17;101356.78;;;7.17;78.25
51876;BME280;34054;52.100;5.116;2022-11-14T01:22:48;101360.47;;;7.22;77.96
51876;BME280;34054;52.100;5.116;2022-11-14T01:23:20;101343.78;;;7.07;77.94
51876;BME280;34054;52.100;5.116;2022-11-14T01:23:53;101359.66;;;7.22;77.98
51876;BME280;34054;52.100;5.116;2022-11-14T01:24:24;101344.63;;;7.07;77.91
51876;BME280;34054;52.100;5.116;2022-11-14T01:24:56;101348.03;;;6.96;77.94
51876;BME280;34054;52.100;5.116;2022-11-14T01:25:31;101365.44;;;7.00;78.18
51876;BME280;34054;52.100;5.116;2022-11-14T01:26:05;101347.19;;;6.96;78.34
51876;BME280;34054;52.100;5.116;2022-11-14T01:26:37;101362.66;;;7.14;78.36
51876;BME280;34054;52.100;5.116;2022-11-14T01:27:10;101363.06;;;7.11;78.43
51876;BME280;34054;52.100;5.116;2022-11-14T01:27:41;101358.94;;;7.08;78.35
51876;BME280;34054;52.100;5.116;2022-11-14T01:28:15;101363.66;;;6.87;78.46
51876;BME280;34054;52.100;5.116;2022-11-14T01:28:49;101356.78;;;6.91;78.94
51876;BME280;34054;52.100;5.116;2022-11-14T01:29:20;101357.56;;;6.99;79.02
51876;BME280;34054;52.100;5.116;2022-11-14T01:29:52;101362.59;;;6.95;78.97
51876;BME280;34054;52.100;5.116;2022-11-14T01:30:25;101358.59;;;6.98;78.91
51876;BME280;34054;52.100;5.116;2022-11-14T01:31:06;101361.88;;;6.74;79.13
51876;BME280;34054;52.100;5.116;2022-11-14T01:31:39;101358.91;;;6.57;79.62
51876;BME280;34054;52.100;5.116;2022-11-14T01:32:13;101356.44;;;6.56;80.12
51876;BME280;34054;52.100;5.116;2022-11-14T01:32:45;101358.06;;;6.57;80.35
51876;BME280;34054;52.100;5.116;2022-11-14T01:33:16;101357.28;;;6.50;80.53
51876;BME280;34054;52.100;5.116;2022-11-14T01:33:50;101356.81;;;6.59;80.62
51876;BME280;34054;52.100;5.116;2022-11-14T01:34:23;101353.25;;;6.66;80.32
51876;BME280;34054;52.100;5.116;2022-11-14T01:34:55;101349.97;;;6.57;80.46
51876;BME280;34054;52.100;5.116;2022-11-14T01:35:28;101350.41;;;6.54;80.59
51876;BME280;34054;52.100;5.116;2022-11-14T01:35:59;101355.97;;;6.59;80.65
51876;BME280;34054;52.100;5.116;2022-11-14T01:36:31;101340.63;;;6.59;80.63
51876;BME280;34054;52.100;5.116;2022-11-14T01:37:02;101357.56;;;6.73;80.70
51876;BME280;34054;52.100;5.116;2022-11-14T01:37:35;101330.34;;;6.75;80.43
51876;BME280;34054;52.100;5.116;2022-11-14T01:38:12;101352.47;;;6.84;80.45
51876;BME280;34054;52.100;5.116;2022-11-14T01:38:44;101349.78;;;6.84;80.03
51876;BME280;34054;52.100;5.116;2022-11-14T01:39:18;101329.09;;;6.71;79.99
51876;BME280;34054;52.100;5.116;2022-11-14T01:39:49;101327.59;;;6.82;79.81
51876;BME280;34054;52.100;5.116;2022-11-14T01:40:21;101344.91;;;6.99;79.82
51876;BME280;34054;52.100;5.116;2022-11-14T01:40:53;101337.84;;;6.98;79.86
51876;BME280;34054;52.100;5.116;2022-11-14T01:41:25;101349.03;;;7.02;79.75
51876;BME280;34054;52.100;5.116;2022-11-14T01:41:59;101328.94;;;6.91;79.41
51876;BME280;34054;52.100;5.116;2022-11-14T01:42:32;101334.09;;;6.99;79.22
51876;BME280;34054;52.100;5.116;2022-11-14T01:43:22;101343.16;;;7.05;79.22
51876;BME280;34054;52.100;5.116;2022-11-14T01:43:55;101338.63;;;7.05;79.13
51876;BME280;34054;52.100;5.116;2022-11-14T01:44:43;101337.75;;;6.86;78.96
51876;BME280;34054;52.100;5.116;2022-11-14T01:46:33;101314.19;;;6.68;79.52
51876;BME280;34054;52.100;5.116;2022-11-14T01:47:08;101338.25;;;6.70;79.71
51876;BME280;34054;52.100;5.116;2022-11-14T01:47:44;101337.00;;;6.72;79.82
51876;BME280;34054;52.100;5.116;2022-11-14T01:48:19;101336.34;;;6.77;79.74
51876;BME280;34054;52.100;5.116;2022-11-14T01:48:57;101308.56;;;6.70;79.74
51876;BME280;34054;52.100;5.116;2022-11-14T01:49:36;101335.09;;;6.80;79.62
51876;BME280;34054;52.100;5.116;2022-11-14T01:50:10;101331.50;;;6.86;79.67
51876;BME280;34054;52.100;5.116;2022-11-14T01:50:41;101333.38;;;6.85;79.74
51876;BME280;34054;52.100;5.116;2022-11-14T01:51:21;101324.44;;;6.85;79.76
51876;BME280;34054;52.100;5.116;2022-11-14T01:52:01;101331.06;;;6.89;79.70
51876;BME280;34054;52.100;5.116;2022-11-14T01:52:38;101255.38;;;6.45;79.57
51876;BME280;34054;52.100;5.116;2022-11-14T01:53:11;101328.53;;;6.94;79.65
51876;BME280;34054;52.100;5.116;2022-11-14T01:53:45;101325.31;;;7.04;79.36
51876;BME280;34054;52.100;5.116;2022-11-14T01:54:23;101311.00;;;7.03;79.28
51876;BME280;34054;52.100;5.116;2022-11-14T01:54:59;101318.44;;;7.08;79.14
51876;BME280;34054;52.100;5.116;2022-11-14T01:55:36;101317.78;;;7.13;79.08
51876;BME280;34054;52.100;5.116;2022-11-14T01:56:09;101320.91;;;7.10;79.11
51876;BME280;34054;52.100;5.116;2022-11-14T01:56:45;101315.72;;;7.08;79.05
51876;BME280;34054;52.100;5.116;2022-11-14T01:57:27;101317.34;;;7.16;78.97
51876;BME280;34054;52.100;5.116;2022-11-14T01:58:01;101307.56;;;7.15;78.96
51876;BME280;34054;52.100;5.116;2022-11-14T01:58:34;101313.34;;;7.18;78.58
51876;BME280;34054;52.100;5.116;2022-11-14T01:59:13;101318.44;;;7.08;78.55
51876;BME280;34054;52.100;5.116;2022-11-14T01:59:50;101314.84;;;7.14;78.56
51876;BME280;34054;52.100;5.116;2022-11-14T02:00:24;101299.56;;;7.01;78.41
51876;BME280;34054;52.100;5.116;2022-11-14T02:00:57;101290.47;;;6.96;78.55
51876;BME280;34054;52.100;5.116;2022-11-14T02:01:31;101307.69;;;7.01;78.58
51876;BME280;34054;52.100;5.116;2022-11-14T02:02:12;101288.44;;;6.91;78.57
51876;BME280;34054;52.100;5.116;2022-11-14T02:02:49;101307.69;;;7.01;78.48
51876;BME280;34054;52.100;5.116;2022-11-14T02:03:20;101303.31;;;7.00;78.53
51876;BME280;34054;52.100;5.116;2022-11-14T02:03:54;101294.56;;;7.05;78.56
51876;BME280;34054;52.100;5.116;2022-11-14T02:04:32;101301.13;;;7.16;78.16
51876;BME280;34054;52.100;5.116;2022-11-14T02:05:11;101302.47;;;7.06;78.33
51876;BME280;34054;52.100;5.116;2022-11-14T02:05:47;101306.97;;;7.13;78.21
51876;BME280;34054;52.100;5.116;2022-11-14T02:06:24;101303.22;;;7.14;77.93
51876;BME280;34054;52.100;5.116;2022-11-14T02:07:01;101295.25;;;7.19;77.54
51876;BME280;34054;52.100;5.116;2022-11-14T02:07:37;101302.47;;;7.06;77.88
51876;BME280;34054;52.100;5.116;2022-11-14T02:08:12;101297.06;;;7.06;77.92
51876;BME280;34054;52.100;5.116;2022-11-14T02:08:46;101299.16;;;7.04;77.77
51876;BME280;34054;52.100;5.116;2022-11-14T02:09:21;101305.34;;;7.05;77.84
51876;BME280;34054;52.100;5.116;2022-11-14T02:09:54;101296.44;;;7.04;77.97
51876;BME280;34054;52.100;5.116;2022-11-14T02:10:26;101297.06;;;7.06;78.00
51876;BME280;34054;52.100;5.116;2022-11-14T02:10:59;101295.72;;;7.16;77.63
51876;BME280;34054;52.100;5.116;2022-11-14T02:11:33;101300.25;;;6.97;77.48
51876;BME280;34054;52.100;5.116;2022-11-14T02:12:11;101288.00;;;6.94;77.86
51876;BME280;34054;52.100;5.116;2022-11-14T02:12:46;101290.91;;;6.99;77.60
51876;BME280;34054;52.100;5.116;2022-11-14T02:13:18;101290.28;;;6.97;77.82
51876;BME280;34054;52.100;5.116;2022-11-14T02:13:51;101298.16;;;6.99;77.77
51876;BME280;34054;52.100;5.116;2022-11-14T02:14:23;101294.63;;;6.98;77.86
51876;BME280;34054;52.100;5.116;2022-11-14T02:14:55;101290.91;;;6.99;77.94
51876;BME280;34054;52.100;5.116;2022-11-14T02:15:28;101292.91;;;7.04;77.76
51876;BME280;34054;52.100;5.116;2022-11-14T02:16:00;101297.50;;;7.03;77.67
51876;BME280;34054;52.100;5.116;2022-11-14T02:16:32;101301.41;;;7.07;77.79
51876;BME280;34054;52.100;5.116;2022-11-14T02:17:05;101288.94;;;7.06;77.52
51876;BME280;34054;52.100;5.116;2022-11-14T02:17:37;101284.66;;;6.99;77.62
51876;BME280;34054;52.100;5.116;2022-11-14T02:18:10;101285.09;;;6.96;77.39
51876;BME280;34054;52.100;5.116;2022-11-14T02:18:43;101273.22;;;6.78;77.64
51876;BME280;34054;52.100;5.116;2022-11-14T02:19:16;101289.28;;;6.91;77.82
51876;BME280;34054;52.100;5.116;2022-11-14T02:19:50;101286.44;;;6.86;77.89
51876;BME280;34054;52.100;5.116;2022-11-14T02:20:26;101290.59;;;6.82;77.86
51876;BME280;34054;52.100;5.116;2022-11-14T02:21:02;101291.03;;;6.79;78.09
51876;BME280;34054;52.100;5.116;2022-11-14T02:21:34;101289.00;;;6.74;78.31
51876;BME280;34054;52.100;5.116;2022-11-14T02:22:07;101278.03;;;6.69;78.57
51876;BME280;34054;52.100;5.116;2022-11-14T02:22:40;101282.78;;;6.74;78.33
51876;BME280;34054;52.100;5.116;2022-11-14T02:23:12;101273.66;;;6.75;78.61
51876;BME280;34054;52.100;5.116;2022-11-14T02:23:47;101268.47;;;6.73;78.51
51876;BME280;34054;52.100;5.116;2022-11-14T02:24:19;101279.00;;;6.82;78.61
51876;BME280;34054;52.100;5.116;2022-11-14T02:24:50;101262.00;;;6.74;78.55
51876;BME280;34054;52.100;5.116;2022-11-14T02:25:22;101249.41;;;6.68;78.39
51876;BME280;34054;52.100;5.116;2022-11-14T02:25:55;101278.09;;;6.88;78.40
51876;BME280;34054;52.100;5.116;2022-11-14T02:26:26;101274.56;;;6.87;78.35
51876;BME280;34054;52.100;5.116;2022-11-14T02:26:59;101245.44;;;6.71;78.20
51876;BME280;34054;52.100;5.116;2022-11-14T02:27:32;101261.56;;;6.78;78.26
51876;BME280;34054;52.100;5.116;2022-11-14T02:28:07;101272.75;;;6.81;78.04
51876;BME280;34054;52.100;5.116;2022-11-14T02:28:41;101272.13;;;6.79;78.12
51876;BME280;34054;52.100;5.116;2022-11-14T02:29:13;101255.91;;;6.60;78.50
51876;BME280;34054;52.100;5.116;2022-11-14T02:29:45;101274.25;;;6.77;78.52
51876;BME280;34054;52.100;5.116;2022-11-14T02:30:19;101267.34;;;6.81;78.39
51876;BME280;34054;52.100;5.116;2022-11-14T02:30:53;101268.47;;;6.73;78.36
51876;BME280;34054;52.100;5.116;2022-11-14T02:31:25;101250.94;;;6.57;78.66
51876;BME280;34054;52.100;5.116;2022-11-14T02:31:58;101274.03;;;6.79;78.57
51876;BME280;34054;52.100;5.116;2022-11-14T02:32:29;101271.56;;;6.77;78.46
51876;BME280;34054;52.100;5.116;2022-11-14T02:33:01;101251.66;;;6.71;78.67
51876;BME280;34054;52.100;5.116;2022-11-14T02:33:32;101247.53;;;6.69;78.42
51876;BME280;34054;52.100;5.116;2022-11-14T02:34:05;101252.81;;;6.82;78.41
51876;BME280;34054;52.100;5.116;2022-11-14T02:34:37;101247.53;;;6.69;78.35
51876;BME280;34054;52.100;5.116;2022-11-14T02:35:09;101255.41;;;6.70;78.35
51876;BME280;34054;52.100;5.116;2022-11-14T02:35:42;101264.50;;;6.76;78.47
51876;BME280;34054;52.100;5.116;2022-11-14T02:36:15;101264.56;;;6.69;78.64
51876;BME280;34054;52.100;5.116;2022-11-14T02:36:46;101237.84;;;6.61;78.50
51876;BME280;34054;52.100;5.116;2022-11-14T02:37:18;101268.78;;;6.84;78.38
51876;BME280;34054;52.100;5.116;2022-11-14T02:37:51;101270.28;;;6.80;78.39
51876;BME280;34054;52.100;5.116;2022-11-14T02:38:22;101271.59;;;6.70;78.63
51876;BME280;34054;52.100;5.116;2022-11-14T02:38:54;101268.47;;;6.73;78.57
51876;BME280;34054;52.100;5.116;2022-11-14T02:39:27;101266.16;;;6.77;78.68
51876;BME280;34054;52.100;5.116;2022-11-14T02:39:58;101271.94;;;6.81;78.72
51876;BME280;34054;52.100;5.116;2022-11-14T02:40:30;101269.25;;;6.81;78.45
51876;BME280;34054;52.100;5.116;2022-11-14T02:41:02;101245.03;;;6.67;78.29
51876;BME280;34054;52.100;5.116;2022-11-14T02:41:34;101282.28;;;6.84;78.33
51876;BME280;34054;52.100;5.116;2022-11-14T02:42:06;101277.34;;;6.81;78.20
51876;BME280;34054;52.100;5.116;2022-11-14T02:42:38;101271.94;;;6.81;78.25
51876;BME280;34054;52.100;5.116;2022-11-14T02:43:10;101269.28;;;6.74;78.42
51876;BME280;34054;52.100;5.116;2022-11-14T02:43:42;101267.13;;;6.83;78.38
51876;BME280;34054;52.100;5.116;2022-11-14T02:44:14;101276.97;;;6.77;78.36
51876;BME280;34054;52.100;5.116;2022-11-14T02:44:46;101274.53;;;6.69;78.41
51876;BME280;34054;52.100;5.116;2022-11-14T02:45:18;101252.00;;;6.56;78.52
51876;BME280;34054;52.100;5.116;2022-11-14T02:45:51;101268.56;;;6.60;78.61
51876;BME280;34054;52.100;5.116;2022-11-14T02:46:23;101270.44;;;6.59;78.62
51876;BME280;34054;52.100;5.116;2022-11-14T02:46:54;101271.44;;;6.65;78.71
51876;BME280;34054;52.100;5.116;2022-11-14T02:47:27;101251.66;;;6.46;78.72
51876;BME280;34054;52.100;5.116;2022-11-14T02:47:58;101273.34;;;6.58;78.79
51876;BME280;34054;52.100;5.116;2022-11-14T02:48:30;101268.59;;;6.53;79.05
51876;BME280;34054;52.100;5.116;2022-11-14T02:49:02;101271.53;;;6.52;79.36
51876;BME280;34054;52.100;5.116;2022-11-14T02:49:34;101249.03;;;6.39;79.39
51876;BME280;34054;52.100;5.116;2022-11-14T02:50:06;101265.09;;;6.53;79.64
51876;BME280;34054;52.100;5.116;2022-11-14T02:50:38;101270.44;;;6.59;79.34
51876;BME280;34054;52.100;5.116;2022-11-14T02:51:12;101269.78;;;6.64;79.08
51876;BME280;34054;52.100;5.116;2022-11-14T02:51:43;101273.97;;;6.60;79.24
51876;BME280;34054;52.100;5.116;2022-11-14T02:52:15;101259.84;;;6.58;79.22
51876;BME280;34054;52.100;5.116;2022-11-14T02:52:48;101224.94;;;6.38;78.97
51876;BME280;34054;52.100;5.116;2022-11-14T02:53:19;101264.94;;;6.48;79.27
51876;BME280;34054;52.100;5.116;2022-11-14T02:53:51;101266.41;;;6.43;79.47
51876;BME280;34054;52.100;5.116;2022-11-14T02:54:23;101270.53;;;6.46;79.45
51876;BME280;34054;52.100;5.116;2022-11-14T02:54:55;101267.44;;;6.42;79.60
51876;BME280;34054;52.100;5.116;2022-11-14T02:55:27;101260.72;;;6.26;79.83
51876;BME280;34054;52.100;5.116;2022-11-14T02:55:59;101265.47;;;6.31;79.94